createdAt,value
2023-05-05T00:02:15.065Z,9.90
2023-05-05T00:04:47.308Z,9.80
2023-05-05T00:07:19.184Z,9.80
2023-05-05T00:09:50.924Z,9.80
2023-05-05T00:12:22.646Z,9.80
2023-05-05T00:14:54.328Z,9.80
2023-05-05T00:17:26.200Z,9.70
2023-05-05T00:19:59.656Z,9.70
2023-05-05T00:22:31.401Z,9.70
2023-05-05T00:25:04.830Z,9.70
2023-05-05T00:27:37.933Z,9.70
2023-05-05T00:30:11.558Z,9.70
2023-05-05T00:32:43.277Z,9.70
2023-05-05T00:35:18.554Z,9.60
2023-05-05T00:37:50.302Z,9.60
2023-05-05T00:40:22.086Z,9.60
2023-05-05T00:42:53.894Z,9.60
2023-05-05T00:45:25.988Z,9.50
2023-05-05T00:47:59.513Z,9.50
2023-05-05T00:50:31.466Z,9.40
2023-05-05T00:53:06.239Z,9.40
2023-05-05T00:55:38.100Z,9.30
2023-05-05T00:58:09.984Z,9.20
2023-05-05T01:00:41.892Z,9.20
2023-05-05T01:03:15.338Z,9.10
2023-05-05T01:06:15.596Z,9.00
2023-05-05T01:09:21.619Z,9.00
2023-05-05T01:12:17.807Z,9.00
2023-05-05T01:15:01.235Z,8.90
2023-05-05T01:17:47.989Z,8.90
2023-05-05T01:20:28.592Z,8.90
2023-05-05T01:23:05.872Z,8.90
2023-05-05T01:26:03.367Z,8.80
2023-05-05T01:28:42.517Z,8.80
2023-05-05T01:31:43.471Z,8.80
2023-05-05T01:34:19.214Z,8.80
2023-05-05T01:36:58.305Z,8.70
2023-05-05T01:39:33.279Z,8.70
2023-05-05T01:42:14.834Z,8.60
2023-05-05T01:44:47.456Z,8.60
2023-05-05T01:47:23.074Z,8.60
2023-05-05T01:49:54.863Z,8.50
2023-05-05T01:52:28.001Z,8.50
2023-05-05T01:55:01.708Z,8.50
2023-05-05T01:57:33.820Z,8.40
2023-05-05T02:00:07.281Z,8.40
2023-05-05T02:02:49.147Z,8.40
2023-05-05T02:05:23.293Z,8.40
2023-05-05T02:07:58.261Z,8.40
2023-05-05T02:10:31.004Z,8.40
2023-05-05T02:13:03.101Z,8.40
2023-05-05T02:15:37.443Z,8.30
2023-05-05T02:18:09.888Z,8.30
2023-05-05T02:20:41.826Z,8.30
2023-05-05T02:23:13.799Z,8.20
2023-05-05T02:25:53.673Z,8.10
2023-05-05T02:28:47.688Z,8.10
2023-05-05T02:31:22.688Z,8.10
2023-05-05T02:33:57.903Z,8.00
2023-05-05T02:36:33.485Z,8.00
2023-05-05T02:39:14.287Z,7.90
2023-05-05T02:41:49.655Z,7.90
2023-05-05T02:44:31.771Z,7.90
2023-05-05T02:47:04.948Z,7.90
2023-05-05T02:49:37.511Z,7.90
2023-05-05T02:52:09.551Z,7.80
2023-05-05T02:54:43.850Z,7.70
2023-05-05T02:57:27.586Z,7.60
2023-05-05T03:00:13.718Z,7.50
2023-05-05T03:03:00.509Z,7.50
2023-05-05T03:05:43.846Z,7.40
2023-05-05T03:08:26.867Z,7.40
2023-05-05T03:11:05.926Z,7.50
2023-05-05T03:13:42.812Z,7.50
2023-05-05T03:16:18.397Z,7.50
2023-05-05T03:18:52.434Z,7.60
2023-05-05T03:21:25.490Z,7.60
2023-05-05T03:23:58.533Z,7.70
2023-05-05T03:26:30.266Z,7.70
2023-05-05T03:29:02.045Z,7.80
2023-05-05T03:31:36.380Z,7.80
2023-05-05T03:34:08.550Z,7.80
2023-05-05T03:36:47.043Z,7.80
2023-05-05T03:39:20.596Z,7.80
2023-05-05T03:41:53.742Z,7.80
2023-05-05T03:44:27.030Z,7.70
2023-05-05T03:46:58.892Z,7.70
2023-05-05T03:49:31.805Z,7.70
2023-05-05T03:52:04.008Z,7.70
2023-05-05T03:54:36.024Z,7.70
2023-05-05T03:57:07.831Z,7.70
2023-05-05T03:59:39.677Z,7.80
2023-05-05T04:02:11.854Z,7.80
2023-05-05T04:04:44.021Z,7.80
2023-05-05T04:07:15.936Z,7.80
2023-05-05T04:09:48.516Z,7.80
2023-05-05T04:12:20.852Z,7.80
2023-05-05T04:14:52.643Z,7.80
2023-05-05T04:17:24.755Z,7.90
2023-05-05T04:19:57.041Z,7.90
2023-05-05T04:22:28.827Z,7.90
2023-05-05T04:25:01.222Z,8.00
2023-05-05T04:27:33.303Z,8.00
2023-05-05T04:30:06.900Z,8.10
2023-05-05T04:32:40.838Z,8.20
2023-05-05T04:35:13.576Z,8.30
2023-05-05T04:37:45.501Z,8.20
2023-05-05T04:40:17.995Z,8.30
2023-05-05T04:42:49.988Z,9.20
2023-05-05T04:45:22.156Z,10.70
2023-05-05T04:47:53.995Z,11.80
2023-05-05T04:50:26.969Z,12.60
2023-05-05T04:52:58.935Z,13.70
2023-05-05T04:55:30.731Z,14.70
2023-05-05T04:58:02.723Z,15.30
2023-05-05T05:00:36.808Z,15.50
2023-05-05T05:03:08.714Z,15.60
2023-05-05T05:05:40.556Z,15.70
2023-05-05T05:08:15.253Z,15.40
2023-05-05T05:10:47.002Z,15.10
2023-05-05T05:13:18.869Z,14.80
2023-05-05T05:15:50.777Z,14.30
2023-05-05T05:18:23.557Z,14.10
2023-05-05T05:20:56.216Z,14.40
2023-05-05T05:23:28.577Z,14.90
2023-05-05T05:26:00.404Z,15.50
2023-05-05T05:28:32.295Z,15.60
2023-05-05T05:31:04.807Z,16.10
2023-05-05T05:33:36.896Z,16.40
2023-05-05T05:36:09.285Z,16.30
2023-05-05T05:38:41.070Z,16.20
2023-05-05T05:41:12.814Z,16.20
2023-05-05T05:43:44.692Z,16.10
2023-05-05T05:46:17.043Z,16.20
2023-05-05T05:48:48.877Z,16.20
2023-05-05T05:51:20.655Z,16.20
2023-05-05T05:53:53.302Z,16.30
2023-05-05T05:56:25.059Z,16.50
2023-05-05T05:58:56.945Z,16.40
2023-05-05T06:01:28.807Z,16.70
2023-05-05T06:04:00.859Z,17.10
2023-05-05T06:06:32.822Z,17.30
2023-05-05T06:09:05.741Z,17.40
2023-05-05T06:11:38.762Z,17.40
2023-05-05T06:14:10.843Z,17.30
2023-05-05T06:16:44.160Z,17.40
2023-05-05T06:19:20.474Z,17.50
2023-05-05T06:21:52.735Z,17.60
2023-05-05T06:24:24.524Z,17.80
2023-05-05T06:26:56.317Z,17.80
2023-05-05T06:29:28.675Z,17.80
2023-05-05T06:32:01.374Z,17.80
2023-05-05T06:34:33.087Z,17.90
2023-05-05T06:37:04.801Z,17.80
2023-05-05T06:39:36.750Z,17.80
2023-05-05T06:42:08.523Z,17.70
2023-05-05T06:44:40.527Z,17.40
2023-05-05T06:47:12.239Z,17.40
2023-05-05T06:49:43.943Z,17.30
2023-05-05T06:52:15.652Z,17.10
2023-05-05T06:54:47.342Z,17.10
2023-05-05T06:57:19.079Z,17.30
2023-05-05T06:59:50.998Z,17.50
2023-05-05T07:02:24.016Z,17.70
2023-05-05T07:04:57.131Z,17.70
2023-05-05T07:07:28.905Z,17.30
2023-05-05T07:10:00.932Z,17.10
2023-05-05T07:12:32.702Z,17.20
2023-05-05T07:15:15.512Z,17.30
2023-05-05T07:17:55.544Z,17.50
2023-05-05T07:20:28.178Z,17.60
2023-05-05T07:22:59.922Z,17.70
2023-05-05T07:25:31.809Z,17.70
2023-05-05T07:28:04.137Z,17.70
2023-05-05T07:30:36.019Z,18.30
2023-05-05T07:33:07.880Z,17.90
2023-05-05T07:35:39.664Z,18.00
2023-05-05T07:38:11.735Z,18.20
2023-05-05T07:40:43.459Z,18.30
2023-05-05T07:43:15.162Z,18.20
2023-05-05T07:45:46.894Z,18.40
2023-05-05T07:48:18.634Z,18.30
2023-05-05T07:50:50.761Z,18.10
2023-05-05T07:53:22.521Z,18.30
2023-05-05T07:55:54.262Z,18.50
2023-05-05T07:58:26.056Z,18.50
2023-05-05T08:00:57.829Z,18.60
2023-05-05T08:03:29.757Z,18.60
2023-05-05T08:06:08.818Z,18.80
2023-05-05T08:08:40.737Z,18.90
2023-05-05T08:11:12.434Z,19.10
2023-05-05T08:13:44.178Z,19.10
2023-05-05T08:16:16.093Z,19.40
2023-05-05T08:18:47.962Z,19.40
2023-05-05T08:21:19.769Z,19.70
2023-05-05T08:23:51.541Z,19.70
2023-05-05T08:26:23.256Z,19.60
2023-05-05T08:28:56.744Z,19.70
2023-05-05T08:31:32.708Z,19.60
2023-05-05T08:34:05.551Z,19.60
2023-05-05T08:36:37.274Z,19.60
2023-05-05T08:39:08.979Z,19.60
2023-05-05T08:41:40.832Z,19.70
2023-05-05T08:44:12.545Z,19.80
2023-05-05T08:46:44.682Z,20.00
2023-05-05T08:49:17.612Z,20.10
2023-05-05T08:51:52.142Z,20.20
2023-05-05T08:54:27.180Z,20.30
2023-05-05T08:57:01.793Z,20.20
2023-05-05T08:59:35.246Z,20.30
2023-05-05T09:02:09.961Z,20.40
2023-05-05T09:04:42.609Z,20.50
2023-05-05T09:07:14.390Z,20.50
2023-05-05T09:09:46.369Z,20.50
2023-05-05T09:12:18.666Z,20.80
2023-05-05T09:14:50.553Z,21.00
2023-05-05T09:17:26.358Z,21.20
2023-05-05T09:20:05.969Z,21.30
2023-05-05T09:22:45.594Z,21.30
2023-05-05T09:25:18.365Z,21.40
2023-05-05T09:27:50.184Z,21.60
2023-05-05T09:30:26.892Z,21.60
2023-05-05T09:33:00.453Z,21.60
2023-05-05T09:36:01.813Z,21.50
2023-05-05T09:38:35.332Z,21.50
2023-05-05T09:41:07.016Z,21.50
2023-05-05T09:43:52.443Z,21.60
2023-05-05T09:46:24.346Z,21.60
2023-05-05T09:48:56.507Z,21.70
2023-05-05T09:51:31.980Z,21.80
2023-05-05T09:54:03.741Z,21.80
2023-05-05T09:56:40.276Z,21.90
2023-05-05T09:59:12.057Z,22.00
2023-05-05T10:01:44.039Z,22.00
2023-05-05T10:04:31.070Z,22.00
2023-05-05T10:07:03.442Z,21.90
2023-05-05T10:09:35.257Z,21.90
2023-05-05T10:12:07.209Z,21.90
2023-05-05T10:14:39.192Z,21.80
2023-05-05T10:17:11.878Z,21.70
2023-05-05T10:19:44.230Z,21.70
2023-05-05T10:22:17.231Z,21.90
2023-05-05T10:25:00.955Z,21.90
2023-05-05T10:27:46.653Z,21.90
2023-05-05T10:30:25.776Z,22.00
2023-05-05T10:33:18.570Z,22.00
2023-05-05T10:35:59.283Z,22.10
2023-05-05T10:38:32.599Z,22.20
2023-05-05T10:41:04.585Z,22.20
2023-05-05T10:43:37.018Z,22.30
2023-05-05T10:46:09.564Z,22.30
2023-05-05T10:48:56.682Z,22.30
2023-05-05T10:51:52.684Z,22.30
2023-05-05T10:54:39.831Z,22.50
2023-05-05T10:57:14.633Z,22.40
2023-05-05T10:59:47.433Z,22.50
2023-05-05T11:02:26.259Z,22.60
2023-05-05T11:05:04.073Z,22.60
2023-05-05T11:07:37.182Z,22.60
2023-05-05T11:10:10.708Z,22.70
2023-05-05T11:13:02.529Z,22.60
2023-05-05T11:15:37.480Z,22.60
2023-05-05T11:18:28.384Z,22.80
2023-05-05T11:21:00.070Z,22.80
2023-05-05T11:23:31.841Z,22.80
2023-05-05T11:26:04.126Z,22.90
2023-05-05T11:29:04.729Z,23.00
2023-05-05T11:31:36.648Z,23.00
2023-05-05T11:34:52.424Z,23.10
2023-05-05T11:37:24.510Z,23.10
2023-05-05T11:40:23.820Z,23.20
2023-05-05T11:43:06.364Z,23.20
2023-05-05T11:45:38.188Z,23.20
2023-05-05T11:48:28.535Z,23.00
2023-05-05T11:51:03.562Z,23.20
2023-05-05T11:53:35.492Z,23.30
2023-05-05T11:56:10.622Z,23.30
2023-05-05T11:58:42.699Z,23.40
2023-05-05T12:01:15.290Z,23.50
2023-05-05T12:03:47.173Z,23.50
2023-05-05T12:06:19.180Z,23.70
2023-05-05T12:08:50.951Z,23.90
2023-05-05T12:11:23.166Z,24.00
2023-05-05T12:14:09.209Z,24.00
2023-05-05T12:16:41.000Z,24.00
2023-05-05T12:19:14.337Z,23.70
2023-05-05T12:21:46.101Z,23.60
2023-05-05T12:24:18.163Z,23.70
2023-05-05T12:26:49.937Z,23.80
2023-05-05T12:29:29.502Z,23.80
2023-05-05T12:32:01.387Z,23.90
2023-05-05T12:34:33.381Z,23.80
2023-05-05T12:37:05.394Z,23.90
2023-05-05T12:39:37.262Z,24.10
2023-05-05T12:42:09.036Z,24.10
2023-05-05T12:44:41.409Z,24.20
2023-05-05T12:47:14.458Z,24.30
2023-05-05T12:49:51.853Z,24.30
2023-05-05T12:52:23.561Z,24.20
2023-05-05T12:54:59.897Z,24.20
2023-05-05T12:57:31.631Z,24.00
2023-05-05T13:00:18.978Z,24.10
2023-05-05T13:02:51.308Z,24.00
2023-05-05T13:05:33.798Z,23.90
2023-05-05T13:08:05.503Z,24.00
2023-05-05T13:10:37.634Z,23.80
2023-05-05T13:13:09.658Z,23.70
2023-05-05T13:15:41.507Z,23.70
2023-05-05T13:18:13.384Z,23.70
2023-05-05T13:20:45.198Z,23.70
2023-05-05T13:23:16.878Z,23.60
2023-05-05T13:25:48.610Z,23.40
2023-05-05T13:28:20.319Z,23.20
2023-05-05T13:30:52.650Z,23.10
2023-05-05T13:33:24.353Z,22.90
2023-05-05T13:35:56.238Z,22.80
2023-05-05T13:38:27.943Z,22.70
2023-05-05T13:41:00.201Z,22.60
2023-05-05T13:43:32.033Z,22.50
2023-05-05T13:46:18.834Z,22.30
2023-05-05T13:48:56.049Z,22.20
2023-05-05T13:51:28.502Z,21.30
2023-05-05T13:54:00.553Z,22.00
2023-05-05T13:56:33.068Z,22.00
2023-05-05T13:59:04.824Z,21.90
2023-05-05T14:01:36.615Z,21.90
2023-05-05T14:04:09.037Z,21.90
2023-05-05T14:06:40.813Z,21.90
2023-05-05T14:09:13.165Z,21.90
2023-05-05T14:11:45.110Z,21.90
2023-05-05T14:14:17.849Z,21.90
2023-05-05T14:16:50.308Z,21.90
2023-05-05T14:19:22.324Z,22.00
2023-05-05T14:21:54.052Z,22.10
2023-05-05T14:24:26.055Z,22.20
2023-05-05T14:26:57.797Z,22.30
2023-05-05T14:29:29.485Z,22.50
2023-05-05T14:32:01.289Z,22.60
2023-05-05T14:34:33.054Z,22.70
2023-05-05T14:37:04.804Z,22.50
2023-05-05T14:39:36.662Z,22.30
2023-05-05T14:42:08.360Z,22.10
2023-05-05T14:44:40.250Z,22.00
2023-05-05T14:47:12.075Z,21.90
2023-05-05T14:49:43.831Z,21.90
2023-05-05T14:52:15.571Z,23.20
2023-05-05T14:54:47.273Z,22.00
2023-05-05T14:57:18.970Z,22.00
2023-05-05T14:59:52.981Z,22.00
2023-05-05T15:02:24.829Z,22.10
2023-05-05T15:04:56.597Z,22.20
2023-05-05T15:07:29.081Z,22.40
2023-05-05T15:10:00.874Z,22.60
2023-05-05T15:12:32.600Z,22.90
2023-05-05T15:15:04.747Z,23.00
2023-05-05T15:17:38.694Z,23.00
2023-05-05T15:20:11.220Z,23.00
2023-05-05T15:22:43.020Z,22.90
2023-05-05T15:25:15.744Z,22.80
2023-05-05T15:27:47.568Z,22.60
2023-05-05T15:30:19.337Z,22.40
2023-05-05T15:32:51.252Z,22.20
2023-05-05T15:35:25.402Z,22.10
2023-05-05T15:37:57.170Z,22.10
2023-05-05T15:40:29.041Z,22.00
2023-05-05T15:43:00.748Z,21.80
2023-05-05T15:45:32.528Z,21.60
2023-05-05T15:48:04.668Z,21.40
2023-05-05T15:50:36.463Z,21.30
2023-05-05T15:53:08.165Z,21.10
2023-05-05T15:55:40.235Z,21.00
2023-05-05T15:58:11.965Z,20.90
2023-05-05T16:00:43.719Z,20.90
2023-05-05T16:03:15.638Z,20.90
2023-05-05T16:05:47.407Z,20.90
2023-05-05T16:08:19.319Z,20.80
2023-05-05T16:10:51.082Z,20.80
2023-05-05T16:13:22.801Z,20.60
2023-05-05T16:15:55.332Z,20.50
2023-05-05T16:18:27.036Z,20.50
2023-05-05T16:20:58.745Z,20.50
2023-05-05T16:23:30.440Z,20.40
2023-05-05T16:26:03.973Z,20.40
2023-05-05T16:28:35.925Z,20.40
2023-05-05T16:31:10.476Z,20.30
2023-05-05T16:33:43.668Z,20.40
2023-05-05T16:36:15.421Z,20.40
2023-05-05T16:38:47.189Z,20.40
2023-05-05T16:41:18.970Z,20.40
2023-05-05T16:43:50.911Z,20.40
2023-05-05T16:46:22.688Z,20.40
2023-05-05T16:48:54.500Z,20.40
2023-05-05T16:51:26.800Z,20.40
2023-05-05T16:53:58.514Z,20.40
2023-05-05T16:56:30.289Z,20.30
2023-05-05T16:59:02.082Z,20.30
2023-05-05T17:01:34.854Z,20.10
2023-05-05T17:04:06.724Z,20.10
2023-05-05T17:06:38.454Z,20.00
2023-05-05T17:09:10.161Z,19.90
2023-05-05T17:11:41.947Z,19.90
2023-05-05T17:14:13.618Z,19.80
2023-05-05T17:16:45.875Z,19.80
2023-05-05T17:19:17.569Z,19.80
2023-05-05T17:21:49.293Z,19.80
2023-05-05T17:24:21.170Z,19.70
2023-05-05T17:26:52.965Z,19.70
2023-05-05T17:29:24.720Z,19.70
2023-05-05T17:31:56.482Z,19.60
2023-05-05T17:34:28.329Z,19.50
2023-05-05T17:37:00.165Z,19.60
2023-05-05T17:39:32.559Z,19.50
2023-05-05T17:42:04.478Z,19.40
2023-05-05T17:44:36.753Z,19.40
2023-05-05T17:47:08.527Z,19.40
2023-05-05T17:49:40.230Z,19.30
2023-05-05T17:52:11.903Z,19.40
2023-05-05T17:54:43.659Z,19.30
2023-05-05T17:57:21.018Z,19.20
2023-05-05T17:59:53.593Z,19.20
2023-05-05T18:02:25.652Z,19.10
2023-05-05T18:04:57.505Z,19.00
2023-05-05T18:07:29.316Z,18.90
2023-05-05T18:10:01.098Z,18.90
2023-05-05T18:12:32.907Z,18.80
2023-05-05T18:15:05.638Z,18.70
2023-05-05T18:17:37.424Z,18.60
2023-05-05T18:20:10.177Z,18.60
2023-05-05T18:22:41.925Z,18.50
2023-05-05T18:25:13.860Z,18.50
2023-05-05T18:27:45.789Z,18.50
2023-05-05T18:30:17.602Z,18.40
2023-05-05T18:32:49.337Z,18.40
2023-05-05T18:35:21.398Z,18.30
2023-05-05T18:37:54.921Z,18.20
2023-05-05T18:40:26.739Z,18.10
2023-05-05T18:42:58.449Z,18.00
2023-05-05T18:45:30.327Z,18.00
2023-05-05T18:48:02.102Z,17.90
2023-05-05T18:50:33.872Z,17.90
2023-05-05T18:53:05.564Z,17.80
2023-05-05T18:55:37.336Z,17.80
2023-05-05T18:58:09.283Z,17.80
2023-05-05T19:00:41.504Z,17.80
2023-05-05T19:03:13.294Z,17.70
2023-05-05T19:05:44.993Z,17.70
2023-05-05T19:08:16.728Z,17.60
2023-05-05T19:10:48.463Z,17.60
2023-05-05T19:13:20.260Z,17.50
2023-05-05T19:15:52.673Z,17.30
2023-05-05T19:18:25.131Z,16.60
2023-05-05T19:20:56.840Z,17.20
2023-05-05T19:23:28.606Z,17.20
2023-05-05T19:26:00.618Z,17.20
2023-05-05T19:28:32.526Z,17.20
2023-05-05T19:31:04.230Z,17.20
2023-05-05T19:33:36.515Z,17.20
2023-05-05T19:36:08.255Z,17.20
2023-05-05T19:38:44.336Z,17.20
2023-05-05T19:41:17.747Z,17.20
2023-05-05T19:43:50.016Z,17.20
2023-05-05T19:46:23.040Z,17.20
2023-05-05T19:48:54.773Z,17.20
2023-05-05T19:51:27.094Z,17.20
2023-05-05T19:53:59.433Z,17.10
2023-05-05T19:56:31.172Z,17.10
2023-05-05T19:59:05.102Z,17.10
2023-05-05T20:01:36.920Z,17.00
2023-05-05T20:04:09.153Z,17.00
2023-05-05T20:06:41.465Z,17.00
2023-05-05T20:09:13.173Z,17.00
2023-05-05T20:11:44.884Z,17.00
2023-05-05T20:14:16.821Z,17.00
2023-05-05T20:16:48.538Z,17.00
2023-05-05T20:19:20.324Z,17.00
2023-05-05T20:21:52.376Z,16.90
2023-05-05T20:24:24.150Z,16.80
2023-05-05T20:26:56.013Z,16.80
2023-05-05T20:29:27.817Z,16.80
2023-05-05T20:31:59.640Z,16.70
2023-05-05T20:34:31.402Z,16.80
2023-05-05T20:37:03.185Z,18.70
2023-05-05T20:39:34.901Z,16.80
2023-05-05T20:42:06.599Z,16.70
2023-05-05T20:44:39.971Z,16.70
2023-05-05T20:47:11.714Z,16.70
2023-05-05T20:49:43.447Z,16.60
2023-05-05T20:52:15.212Z,16.50
2023-05-05T20:54:46.963Z,16.30
2023-05-05T20:57:18.725Z,16.30
2023-05-05T20:59:50.408Z,16.20
2023-05-05T21:02:22.297Z,16.10
2023-05-05T21:04:54.130Z,16.00
2023-05-05T21:07:25.814Z,16.00
2023-05-05T21:09:57.554Z,15.90
2023-05-05T21:12:30.151Z,15.80
2023-05-05T21:15:02.054Z,15.70
2023-05-05T21:17:34.138Z,15.70
2023-05-05T21:20:06.929Z,15.60
2023-05-05T21:22:38.760Z,15.60
2023-05-05T21:25:14.870Z,15.60
2023-05-05T21:27:47.492Z,15.50
2023-05-05T21:30:19.266Z,15.50
2023-05-05T21:32:51.846Z,15.50
2023-05-05T21:35:23.571Z,15.50
2023-05-05T21:37:55.607Z,15.50
2023-05-05T21:40:27.313Z,15.50
2023-05-05T21:42:59.023Z,15.50
2023-05-05T21:45:30.875Z,15.50
2023-05-05T21:48:02.755Z,15.50
2023-05-05T21:50:36.510Z,15.50
2023-05-05T21:53:08.215Z,15.50
2023-05-05T21:55:39.897Z,15.50
2023-05-05T21:58:11.662Z,15.50
2023-05-05T22:00:43.548Z,15.40
2023-05-05T22:03:15.860Z,15.40
2023-05-05T22:05:47.614Z,15.40
2023-05-05T22:08:19.712Z,15.40
2023-05-05T22:10:52.309Z,15.50
2023-05-05T22:13:24.096Z,15.40
2023-05-05T22:15:55.870Z,15.40
2023-05-05T22:18:27.592Z,15.40
2023-05-05T22:21:01.151Z,15.40
2023-05-05T22:23:32.866Z,15.40
2023-05-05T22:26:04.855Z,15.40
2023-05-05T22:28:36.663Z,15.40
2023-05-05T22:31:08.415Z,15.40
2023-05-05T22:33:40.138Z,15.40
2023-05-05T22:36:13.095Z,15.40
2023-05-05T22:38:44.805Z,15.40
2023-05-05T22:41:16.567Z,15.40
2023-05-05T22:43:49.250Z,15.40
2023-05-05T22:46:21.026Z,15.40
2023-05-05T22:48:54.090Z,15.40
2023-05-05T22:51:25.866Z,15.40
2023-05-05T22:53:57.560Z,15.40
2023-05-05T22:56:29.334Z,15.40
2023-05-05T22:59:01.064Z,15.40
2023-05-05T23:01:35.874Z,15.40
2023-05-05T23:04:07.754Z,15.40
2023-05-05T23:06:42.354Z,15.40
2023-05-05T23:09:14.071Z,15.40
2023-05-05T23:11:45.750Z,15.30
2023-05-05T23:14:19.322Z,15.30
2023-05-05T23:16:51.085Z,15.30
2023-05-05T23:19:24.102Z,15.30
2023-05-05T23:21:56.051Z,15.30
2023-05-05T23:24:31.058Z,15.40
2023-05-05T23:27:03.010Z,15.40
2023-05-05T23:29:34.759Z,15.40
2023-05-05T23:32:06.630Z,15.30
2023-05-05T23:34:38.324Z,15.30
2023-05-05T23:37:10.307Z,15.30
2023-05-05T23:39:42.029Z,15.30
2023-05-05T23:42:13.774Z,15.30
2023-05-05T23:44:45.476Z,15.30
2023-05-05T23:47:17.248Z,15.30
2023-05-05T23:49:49.157Z,15.30
2023-05-05T23:52:20.928Z,15.20
2023-05-05T23:54:52.650Z,15.20
2023-05-05T23:57:24.344Z,15.20
2023-05-05T23:59:56.042Z,15.10
